Time;durP1;ratioP1;P1;durP2;ratioP2;P2;SDS_P1;SDS_P2;PMS_P1;PMS_P2;Temp;Humidity;BMP_temperature;BMP_pressure;BME280_temperature;BME280_humidity;BME280_pressure;Samples;Min_cycle;Max_cycle;Signal;HPM_P1;HPM_P2
2022/03/31 00:00:47;;;;;;;29.63;11.50;;;9.80;99.90;;;;;;4957074;28;20541;-83
2022/03/31 00:03:15;;;;;;;32.95;11.77;;;9.80;99.90;;;;;;4975740;28;20023;-84
2022/03/31 00:05:41;;;;;;;25.75;10.73;;;9.80;99.90;;;;;;4957630;28;20450;-84
2022/03/31 00:08:09;;;;;;;30.73;11.65;;;9.80;99.90;;;;;;4975539;28;20479;-84
2022/03/31 00:10:37;;;;;;;29.17;11.77;;;9.70;99.90;;;;;;4957156;28;20042;-84
2022/03/31 00:13:06;;;;;;;31.27;11.40;;;9.70;99.90;;;;;;4958105;28;20026;-83
2022/03/31 00:15:32;;;;;;;29.45;12.48;;;9.70;99.90;;;;;;4957777;28;20073;-83
2022/03/31 00:18:00;;;;;;;34.08;12.68;;;9.70;99.90;;;;;;4957823;28;20023;-83
2022/03/31 00:20:26;;;;;;;27.35;12.68;;;9.70;99.90;;;;;;4957999;28;20027;-83
2022/03/31 00:22:52;;;;;;;32.58;12.60;;;9.70;99.90;;;;;;4974977;28;20023;-83
2022/03/31 00:25:18;;;;;;;23.13;11.95;;;9.80;99.90;;;;;;4975188;28;20031;-83
2022/03/31 00:27:44;;;;;;;41.78;13.48;;;9.70;99.90;;;;;;4957372;28;20368;-83
2022/03/31 00:30:12;;;;;;;30.88;12.32;;;9.70;99.90;;;;;;4974878;28;20027;-84
2022/03/31 00:32:38;;;;;;;29.67;13.40;;;9.70;99.90;;;;;;4959985;28;20038;-83
2022/03/31 00:35:06;;;;;;;37.28;13.65;;;9.70;99.90;;;;;;4973722;28;20399;-83
2022/03/31 00:37:31;;;;;;;33.72;13.77;;;9.70;99.90;;;;;;4975123;28;20030;-83
2022/03/31 00:39:57;;;;;;;33.47;13.35;;;9.70;99.90;;;;;;4974969;28;20031;-84
2022/03/31 00:42:23;;;;;;;40.28;13.63;;;9.60;99.90;;;;;;4973337;28;20027;-83
2022/03/31 00:44:50;;;;;;;40.42;15.18;;;9.60;99.90;;;;;;4974586;28;20051;-83
2022/03/31 00:47:17;;;;;;;36.78;14.05;;;9.60;99.90;;;;;;4974611;28;20027;-83
2022/03/31 00:49:44;;;;;;;35.55;14.60;;;9.50;99.90;;;;;;4974512;28;20022;-83
2022/03/31 00:52:09;;;;;;;41.88;14.02;;;9.50;99.90;;;;;;4973808;28;20047;-83
2022/03/31 00:54:37;;;;;;;29.13;13.45;;;9.50;99.90;;;;;;4974575;28;20026;-83
2022/03/31 00:57:05;;;;;;;40.25;15.00;;;9.60;99.90;;;;;;4956769;28;20019;-83
2022/03/31 00:59:31;;;;;;;32.60;13.38;;;9.60;99.90;;;;;;4974532;28;20054;-83
2022/03/31 01:01:59;;;;;;;33.17;13.20;;;9.60;99.90;;;;;;4956981;28;20030;-83
2022/03/31 01:04:26;;;;;;;40.38;13.40;;;9.60;99.90;;;;;;4957318;28;20037;-84
2022/03/31 01:06:52;;;;;;;33.83;14.50;;;9.60;99.90;;;;;;4973855;28;20018;-84
2022/03/31 01:09:18;;;;;;;35.22;13.80;;;9.50;99.90;;;;;;4973517;28;20034;-83
2022/03/31 01:11:45;;;;;;;33.67;14.32;;;9.60;99.90;;;;;;4973630;28;20027;-84
2022/03/31 01:14:11;;;;;;;33.90;14.93;;;9.60;99.90;;;;;;4956744;28;20050;-84
2022/03/31 01:16:37;;;;;;;34.17;14.35;;;9.50;99.90;;;;;;4974269;28;20022;-83
2022/03/31 01:19:07;;;;;;;39.03;14.43;;;9.50;99.90;;;;;;4956701;28;20034;-83
2022/03/31 01:21:41;;;;;;;35.17;14.90;;;9.60;99.90;;;;;;4974153;28;20069;-83
2022/03/31 01:24:08;;;;;;;37.63;15.23;;;9.60;99.90;;;;;;4973900;28;20027;-83
2022/03/31 01:26:35;;;;;;;33.05;13.63;;;9.60;99.90;;;;;;4974125;28;20034;-84
2022/03/31 01:29:01;;;;;;;40.50;14.30;;;9.60;99.90;;;;;;4973920;28;20030;-83
2022/03/31 01:31:27;;;;;;;34.85;13.70;;;9.60;99.90;;;;;;4973944;28;20023;-83
2022/03/31 01:33:54;;;;;;;37.13;14.95;;;9.60;99.90;;;;;;4973491;28;20035;-83
2022/03/31 01:36:20;;;;;;;45.50;15.45;;;9.60;99.90;;;;;;4972990;28;20023;-83
2022/03/31 01:38:47;;;;;;;41.05;14.80;;;9.60;99.90;;;;;;4973776;28;20442;-83
2022/03/31 01:41:12;;;;;;;36.38;14.43;;;9.50;99.90;;;;;;4958776;28;20031;-83
2022/03/31 01:43:38;;;;;;;30.20;14.73;;;9.50;99.90;;;;;;4973804;28;20038;-84
2022/03/31 01:46:07;;;;;;;36.15;14.90;;;9.50;99.90;;;;;;4973901;28;20035;-83
2022/03/31 01:48:33;;;;;;;41.30;14.60;;;9.50;99.90;;;;;;4974109;28;20430;-84
2022/03/31 01:50:59;;;;;;;47.97;16.38;;;9.50;99.90;;;;;;4973313;28;20082;-84
2022/03/31 01:53:25;;;;;;;34.00;15.90;;;9.50;99.90;;;;;;4973511;28;20062;-83
2022/03/31 01:55:51;;;;;;;34.10;15.10;;;9.60;99.90;;;;;;4973104;28;20015;-84
2022/03/31 01:58:17;;;;;;;31.30;15.23;;;9.60;99.90;;;;;;4958516;28;20029;-83
2022/03/31 02:00:42;;;;;;;36.92;14.77;;;9.50;99.90;;;;;;4973985;28;20034;-83
2022/03/31 02:03:08;;;;;;;28.45;13.65;;;9.50;99.90;;;;;;4956164;28;20418;-83
2022/03/31 02:05:34;;;;;;;38.10;14.43;;;9.50;99.90;;;;;;4973713;28;20027;-84
2022/03/31 02:07:59;;;;;;;36.03;14.63;;;9.50;99.90;;;;;;4955934;28;20038;-83
2022/03/31 02:10:25;;;;;;;35.92;15.45;;;9.50;99.90;;;;;;4973903;28;20018;-83
2022/03/31 02:12:51;;;;;;;35.28;13.77;;;9.50;99.90;;;;;;4973722;28;20034;-83
2022/03/31 02:15:20;;;;;;;35.05;14.73;;;9.50;99.90;;;;;;4973769;28;20019;-83
2022/03/31 02:17:46;;;;;;;33.78;14.77;;;9.50;99.90;;;;;;4973611;28;20031;-83
2022/03/31 02:20:12;;;;;;;34.83;15.18;;;9.50;99.90;;;;;;4956067;28;20023;-83
2022/03/31 02:22:39;;;;;;;34.17;15.45;;;9.60;99.90;;;;;;4955818;28;20037;-83
2022/03/31 02:25:08;;;;;;;41.42;15.02;;;9.50;99.90;;;;;;4958741;28;20082;-83
2022/03/31 02:27:38;;;;;;;37.38;15.25;;;9.50;99.90;;;;;;4977263;28;20027;-84
2022/03/31 02:30:05;;;;;;;32.78;14.43;;;9.50;99.90;;;;;;4977014;28;20027;-83
2022/03/31 02:32:31;;;;;;;37.40;15.70;;;9.40;99.90;;;;;;4976769;28;20435;-83
2022/03/31 02:34:57;;;;;;;35.67;15.10;;;9.40;99.90;;;;;;4959351;28;20065;-83
2022/03/31 02:37:23;;;;;;;37.08;14.38;;;9.50;99.90;;;;;;4977032;28;20033;-83
2022/03/31 02:39:49;;;;;;;35.88;15.40;;;9.40;99.90;;;;;;4976988;28;20030;-84
2022/03/31 02:42:16;;;;;;;35.40;14.70;;;9.50;99.90;;;;;;4959520;28;20030;-84
2022/03/31 02:44:42;;;;;;;33.53;15.43;;;9.50;99.90;;;;;;4976885;28;20486;-84
2022/03/31 02:47:09;;;;;;;34.22;15.35;;;9.50;99.90;;;;;;4959343;28;20105;-83
2022/03/31 02:49:35;;;;;;;30.42;15.02;;;9.40;99.90;;;;;;4976910;28;20023;-83
2022/03/31 02:52:01;;;;;;;41.47;14.95;;;9.50;99.90;;;;;;4976137;28;20126;-83
2022/03/31 02:57:12;;;;;;;35.70;15.85;;;9.50;99.90;;;;;;4976568;28;20138;-83
2022/03/31 02:59:38;;;;;;;41.42;14.40;;;9.50;99.90;;;;;;4976254;28;20106;-83
2022/03/31 03:02:05;;;;;;;37.50;15.18;;;9.50;99.90;;;;;;4959171;28;20037;-84
2022/03/31 03:04:30;;;;;;;40.15;15.95;;;9.50;99.90;;;;;;4976368;28;20118;-84
2022/03/31 03:06:56;;;;;;;30.73;14.73;;;9.50;99.90;;;;;;4976233;28;20110;-83
2022/03/31 03:09:22;;;;;;;27.17;13.93;;;9.50;99.90;;;;;;4976349;28;20031;-84
2022/03/31 03:11:48;;;;;;;39.10;14.75;;;9.50;99.90;;;;;;4958995;28;20041;-83
2022/03/31 03:14:14;;;;;;;36.33;13.55;;;9.50;99.90;;;;;;4976105;28;20110;-83
2022/03/31 03:16:40;;;;;;;34.58;14.57;;;9.40;99.90;;;;;;4976362;28;20023;-83
2022/03/31 03:19:07;;;;;;;34.88;14.60;;;9.50;99.90;;;;;;4976107;28;20082;-84
2022/03/31 03:21:34;;;;;;;42.22;15.02;;;9.40;99.90;;;;;;4975915;28;20074;-83
2022/03/31 03:24:01;;;;;;;44.30;14.93;;;9.40;99.90;;;;;;4958944;28;20023;-84
2022/03/31 03:26:28;;;;;;;41.90;13.98;;;9.40;99.90;;;;;;4975844;28;20037;-84
2022/03/31 03:28:54;;;;;;;35.22;14.27;;;9.40;99.90;;;;;;4975946;28;20489;-84
2022/03/31 03:31:20;;;;;;;41.60;14.20;;;9.40;99.90;;;;;;4975915;28;20106;-84
2022/03/31 03:33:46;;;;;;;34.65;15.82;;;9.30;99.90;;;;;;4975395;28;20138;-83
2022/03/31 03:36:14;;;;;;;39.50;14.15;;;9.40;99.90;;;;;;4975487;28;20038;-83
2022/03/31 03:38:40;;;;;;;37.38;14.38;;;9.40;99.90;;;;;;4974875;28;20118;-84
2022/03/31 03:41:07;;;;;;;30.90;14.90;;;9.30;99.90;;;;;;4975842;28;20109;-83
2022/03/31 03:43:32;;;;;;;32.30;15.45;;;9.30;99.90;;;;;;4975682;28;20029;-84
2022/03/31 03:45:58;;;;;;;29.13;14.13;;;9.30;99.90;;;;;;4975538;28;20110;-83
2022/03/31 03:48:24;;;;;;;32.05;13.82;;;9.30;99.90;;;;;;4975803;28;20031;-84
2022/03/31 03:50:50;;;;;;;39.03;15.38;;;9.30;99.90;;;;;;4957759;28;20082;-83
2022/03/31 03:53:15;;;;;;;30.67;14.82;;;9.30;99.90;;;;;;4975301;28;20089;-84
2022/03/31 03:55:41;;;;;;;38.13;15.10;;;9.30;99.90;;;;;;4975559;28;20023;-84
2022/03/31 03:58:07;;;;;;;36.92;15.02;;;9.40;99.90;;;;;;4958042;28;20030;-83
2022/03/31 04:00:33;;;;;;;36.55;14.63;;;9.30;99.90;;;;;;4957902;28;20019;-84
2022/03/31 04:02:59;;;;;;;33.17;14.38;;;9.30;99.90;;;;;;4957935;28;20379;-84
2022/03/31 04:05:25;;;;;;;32.75;15.55;;;9.30;99.90;;;;;;4956812;28;20038;-84
2022/03/31 04:07:51;;;;;;;34.67;15.45;;;9.30;99.90;;;;;;4956825;28;20122;-84
2022/03/31 04:10:16;;;;;;;35.08;15.35;;;9.30;99.90;;;;;;4956172;28;20034;-84
2022/03/31 04:12:42;;;;;;;33.33;15.70;;;9.30;99.90;;;;;;4956953;28;20027;-81
2022/03/31 04:15:09;;;;;;;37.85;15.63;;;9.30;99.90;;;;;;4974394;28;20030;-82
2022/03/31 04:17:36;;;;;;;35.13;16.05;;;9.30;99.90;;;;;;4956969;28;20027;-82
2022/03/31 04:20:02;;;;;;;38.47;16.73;;;9.30;99.90;;;;;;4974127;28;20081;-82
2022/03/31 04:22:28;;;;;;;40.05;16.70;;;9.40;99.90;;;;;;4973392;28;20498;-82
2022/03/31 04:24:54;;;;;;;43.38;17.05;;;9.30;99.90;;;;;;4956698;28;20046;-81
2022/03/31 04:27:20;;;;;;;37.72;15.40;;;9.40;99.90;;;;;;4974304;28;20114;-83
2022/03/31 04:29:45;;;;;;;33.50;14.93;;;9.30;99.90;;;;;;4956522;28;20039;-83
2022/03/31 04:32:12;;;;;;;40.85;16.65;;;9.30;99.90;;;;;;4955912;28;20054;-82
2022/03/31 04:34:38;;;;;;;34.42;15.55;;;9.30;99.90;;;;;;4955458;28;20041;-82
2022/03/31 04:37:06;;;;;;;35.20;15.70;;;9.30;99.90;;;;;;4974108;28;20110;-81
2022/03/31 04:39:31;;;;;;;40.60;15.75;;;9.30;99.90;;;;;;4973859;28;20031;-82
2022/03/31 04:41:57;;;;;;;40.83;14.93;;;9.40;99.90;;;;;;4973277;28;20415;-82
2022/03/31 04:44:23;;;;;;;30.80;14.88;;;9.40;99.90;;;;;;4954996;28;20039;-82
2022/03/31 04:46:49;;;;;;;33.95;15.43;;;9.40;99.90;;;;;;4953694;28;20031;-83
2022/03/31 04:49:14;;;;;;;30.17;15.48;;;9.30;99.90;;;;;;4973732;28;20066;-81
2022/03/31 04:51:40;;;;;;;35.35;15.75;;;9.30;99.90;;;;;;4973238;28;20097;-80
2022/03/31 04:54:06;;;;;;;41.17;15.65;;;9.30;99.90;;;;;;4972864;28;20035;-80
2022/03/31 04:56:32;;;;;;;34.58;15.43;;;9.20;99.90;;;;;;4973183;28;20023;-80
2022/03/31 04:58:58;;;;;;;41.30;15.95;;;9.20;99.90;;;;;;4968728;28;20033;-81
2022/03/31 05:01:24;;;;;;;36.55;16.05;;;9.30;99.90;;;;;;4972632;28;20427;-81
2022/03/31 05:03:51;;;;;;;39.00;16.55;;;9.30;99.90;;;;;;4955930;28;20482;-81
2022/03/31 05:06:17;;;;;;;38.75;16.55;;;9.30;99.90;;;;;;4972499;28;20510;-82
2022/03/31 05:08:43;;;;;;;45.50;17.67;;;9.30;99.90;;;;;;4972831;28;20073;-84
2022/03/31 05:11:09;;;;;;;37.08;16.33;;;9.30;99.90;;;;;;4954887;28;20027;-85
2022/03/31 05:13:34;;;;;;;40.03;17.48;;;9.30;99.90;;;;;;4954870;28;20035;-84
2022/03/31 05:16:00;;;;;;;39.30;17.10;;;9.30;99.90;;;;;;4954720;28;20520;-85
2022/03/31 05:18:26;;;;;;;33.00;16.02;;;9.40;99.90;;;;;;4962106;28;20029;-84
2022/03/31 05:20:52;;;;;;;41.85;17.33;;;9.30;99.90;;;;;;4973156;28;20022;-85
2022/03/31 05:23:18;;;;;;;44.88;19.23;;;9.30;99.90;;;;;;4955907;28;20570;-85
2022/03/31 05:25:45;;;;;;;37.17;17.25;;;9.30;99.90;;;;;;4955282;28;20078;-86
2022/03/31 05:28:11;;;;;;;37.25;16.42;;;9.30;99.90;;;;;;4955197;28;20034;-85
2022/03/31 05:30:37;;;;;;;45.05;18.58;;;9.40;99.90;;;;;;4971853;28;20027;-85
2022/03/31 05:33:03;;;;;;;48.72;18.50;;;9.40;99.90;;;;;;4973035;28;20089;-85
2022/03/31 05:35:29;;;;;;;43.47;18.08;;;9.30;99.90;;;;;;4972811;28;20022;-86
2022/03/31 05:37:55;;;;;;;49.53;19.98;;;9.40;99.90;;;;;;4955939;28;20134;-86
2022/03/31 05:40:22;;;;;;;39.28;18.45;;;9.40;99.90;;;;;;4972822;28;20066;-86
2022/03/31 05:42:48;;;;;;;40.08;18.58;;;9.40;99.90;;;;;;4956128;28;20084;-86
2022/03/31 05:45:15;;;;;;;37.10;18.08;;;9.40;99.90;;;;;;4955310;28;20030;-86
2022/03/31 05:47:44;;;;;;;49.78;18.25;;;9.30;99.90;;;;;;4972583;28;20422;-86
2022/03/31 05:50:11;;;;;;;38.00;18.20;;;9.30;99.90;;;;;;4955298;28;20109;-86
2022/03/31 05:52:42;;;;;;;42.92;19.23;;;9.30;99.90;;;;;;4955722;28;20042;-86
2022/03/31 05:55:14;;;;;;;39.90;19.13;;;9.30;99.90;;;;;;4973176;28;20023;-85
2022/03/31 05:57:40;;;;;;;40.20;18.00;;;9.30;99.90;;;;;;4972823;28;20031;-85
2022/03/31 06:00:09;;;;;;;40.55;17.65;;;9.30;99.90;;;;;;4958025;28;20113;-86
2022/03/31 06:02:35;;;;;;;40.10;17.98;;;9.30;99.90;;;;;;4959581;28;20061;-86
2022/03/31 06:05:01;;;;;;;39.97;18.60;;;9.30;99.90;;;;;;4959474;28;20058;-86
2022/03/31 06:07:26;;;;;;;41.33;21.38;;;9.30;99.90;;;;;;4959761;28;20113;-86
2022/03/31 06:09:52;;;;;;;41.45;18.90;;;9.20;99.90;;;;;;4976868;28;20030;-86
2022/03/31 06:12:18;;;;;;;45.10;19.95;;;9.30;99.90;;;;;;4959337;28;20037;-86
2022/03/31 06:14:44;;;;;;;45.58;21.25;;;9.30;99.90;;;;;;4976246;28;20024;-86
2022/03/31 06:17:10;;;;;;;47.42;23.08;;;9.30;99.90;;;;;;4959660;28;20390;-86
2022/03/31 06:19:36;;;;;;;45.72;22.92;;;9.30;99.90;;;;;;4975732;28;20110;-86
2022/03/31 06:22:03;;;;;;;49.45;22.73;;;9.40;99.90;;;;;;4959251;28;20487;-86
2022/03/31 06:24:29;;;;;;;52.10;24.90;;;9.30;99.90;;;;;;4976878;28;20105;-86
2022/03/31 06:26:58;;;;;;;52.75;24.35;;;9.30;99.90;;;;;;4976438;28;20498;-86
2022/03/31 06:29:27;;;;;;;52.97;24.17;;;9.30;99.90;;;;;;4958594;28;20031;-85
2022/03/31 06:31:54;;;;;;;57.55;25.75;;;9.40;99.90;;;;;;4958918;28;20027;-85
2022/03/31 06:34:21;;;;;;;60.10;26.75;;;9.30;99.90;;;;;;4959411;28;20023;-85
2022/03/31 06:36:47;;;;;;;65.10;26.88;;;9.30;99.90;;;;;;4946831;28;20024;-85
2022/03/31 06:39:13;;;;;;;59.20;25.70;;;9.30;99.90;;;;;;4956952;29;20089;-85
2022/03/31 06:41:39;;;;;;;53.30;26.05;;;9.30;99.90;;;;;;4956667;29;20086;-85
2022/03/31 06:44:08;;;;;;;60.15;26.42;;;9.40;99.90;;;;;;4939392;29;20488;-85
2022/03/31 06:46:34;;;;;;;72.53;27.48;;;9.40;99.90;;;;;;4939664;29;20036;-86
2022/03/31 06:49:00;;;;;;;66.80;27.02;;;9.40;99.90;;;;;;4939565;29;20027;-86
2022/03/31 06:51:26;;;;;;;58.15;27.05;;;9.40;99.90;;;;;;4939026;29;20415;-86
2022/03/31 06:53:51;;;;;;;72.13;30.40;;;9.40;99.90;;;;;;4939922;29;20035;-85
2022/03/31 06:56:18;;;;;;;70.88;28.80;;;9.40;99.90;;;;;;4956486;29;20098;-85
2022/03/31 06:58:44;;;;;;;63.70;29.55;;;9.40;99.90;;;;;;4938825;29;20027;-85
2022/03/31 07:01:11;;;;;;;65.07;28.70;;;9.40;99.90;;;;;;4939550;29;20027;-86
2022/03/31 07:03:37;;;;;;;79.10;32.85;;;9.40;99.90;;;;;;4956436;29;20447;-86
2022/03/31 07:06:02;;;;;;;67.15;28.27;;;9.40;99.90;;;;;;4957031;28;20035;-85
2022/03/31 07:08:28;;;;;;;71.18;30.35;;;9.40;99.90;;;;;;4976350;28;20066;-86
2022/03/31 07:10:54;;;;;;;64.40;28.65;;;9.30;99.90;;;;;;4957744;28;20483;-85
2022/03/31 07:13:19;;;;;;;63.08;29.60;;;9.40;99.90;;;;;;4958205;28;20113;-85
2022/03/31 07:15:45;;;;;;;64.15;29.35;;;9.30;99.90;;;;;;4958095;28;20066;-86
2022/03/31 07:18:11;;;;;;;65.20;28.88;;;9.40;99.90;;;;;;4958541;28;20037;-85
2022/03/31 07:20:37;;;;;;;64.15;28.67;;;9.40;99.90;;;;;;4958014;28;20033;-85
2022/03/31 07:23:03;;;;;;;64.38;27.35;;;9.40;99.90;;;;;;4958060;28;20033;-86
2022/03/31 07:25:29;;;;;;;63.75;26.67;;;9.50;99.90;;;;;;4975836;28;20027;-85
2022/03/31 07:27:55;;;;;;;50.97;23.88;;;9.40;99.90;;;;;;4975285;28;20093;-87
2022/03/31 07:30:22;;;;;;;49.22;24.00;;;9.60;99.90;;;;;;4957944;28;20050;-82
2022/03/31 07:33:06;;;;;;;58.53;25.10;;;9.50;99.90;;;;;;4957584;28;20406;-84
2022/03/31 07:35:33;;;;;;;48.80;24.73;;;9.50;99.90;;;;;;4974660;28;20046;-84
2022/03/31 07:38:03;;;;;;;49.30;23.90;;;9.50;99.90;;;;;;4975169;28;20093;-85
2022/03/31 07:40:29;;;;;;;50.28;22.92;;;9.50;99.90;;;;;;4974770;28;20490;-84
2022/03/31 07:42:55;;;;;;;50.78;21.77;;;9.50;99.90;;;;;;4974272;28;20095;-81
2022/03/31 07:45:22;;;;;;;56.20;22.98;;;9.50;99.90;;;;;;4956818;28;20085;-82
2022/03/31 07:47:48;;;;;;;42.42;21.63;;;9.40;99.90;;;;;;4956618;28;20023;-82
2022/03/31 07:50:15;;;;;;;45.58;22.13;;;9.40;99.90;;;;;;4974290;28;20029;-84
2022/03/31 07:52:42;;;;;;;48.95;22.33;;;9.40;99.90;;;;;;4957270;28;20491;-84
2022/03/31 07:55:10;;;;;;;49.88;23.20;;;9.40;99.90;;;;;;4956191;28;20029;-82
2022/03/31 07:57:35;;;;;;;47.55;23.50;;;9.40;99.90;;;;;;4973973;28;20084;-83
2022/03/31 08:00:03;;;;;;;48.22;21.90;;;9.40;99.90;;;;;;4974502;28;20019;-84
2022/03/31 08:02:29;;;;;;;53.03;22.20;;;9.50;99.90;;;;;;4957613;28;20439;-84
2022/03/31 08:04:54;;;;;;;51.40;22.52;;;9.50;99.90;;;;;;4974355;28;20034;-83
2022/03/31 08:07:21;;;;;;;49.72;22.00;;;9.40;99.90;;;;;;4974308;28;20387;-84
2022/03/31 08:09:47;;;;;;;47.85;21.38;;;9.40;99.90;;;;;;4974715;28;20081;-84
2022/03/31 08:12:12;;;;;;;44.00;21.70;;;9.50;99.90;;;;;;4973780;28;20031;-84
2022/03/31 08:14:38;;;;;;;46.97;21.75;;;9.40;99.90;;;;;;4973513;28;20508;-85
2022/03/31 08:17:04;;;;;;;47.00;21.27;;;9.60;99.90;;;;;;4970516;28;20391;-85
2022/03/31 08:19:30;;;;;;;46.13;21.23;;;9.60;99.90;;;;;;4973839;28;20372;-85
2022/03/31 08:21:56;;;;;;;42.13;20.52;;;9.70;99.90;;;;;;4972863;28;21159;-84
2022/03/31 08:24:23;;;;;;;44.97;21.58;;;9.70;99.90;;;;;;4956428;28;20521;-85
2022/03/31 08:26:50;;;;;;;41.45;19.55;;;9.70;99.90;;;;;;4955337;28;20093;-85
2022/03/31 08:29:17;;;;;;;41.65;20.13;;;9.80;99.90;;;;;;4972858;28;20015;-85
2022/03/31 08:31:42;;;;;;;33.13;17.52;;;9.70;99.90;;;;;;4955061;28;20035;-84
2022/03/31 08:34:09;;;;;;;32.20;17.75;;;9.60;99.90;;;;;;4973841;28;20114;-85
2022/03/31 08:36:35;;;;;;;31.77;16.42;;;9.60;99.90;;;;;;4972665;28;20525;-85
2022/03/31 08:39:01;;;;;;;30.13;15.65;;;9.60;99.90;;;;;;4967740;28;20023;-84
2022/03/31 08:41:28;;;;;;;28.63;15.82;;;9.60;99.90;;;;;;4972629;28;20509;-85
2022/03/31 08:43:55;;;;;;;31.85;15.20;;;9.60;99.90;;;;;;4955512;28;20483;-82
2022/03/31 08:46:22;;;;;;;34.45;15.95;;;9.60;99.90;;;;;;4973707;28;20390;-84
2022/03/31 08:48:48;;;;;;;31.13;16.15;;;9.70;99.90;;;;;;4973450;28;20554;-85
2022/03/31 08:51:14;;;;;;;28.13;14.88;;;9.70;99.90;;;;;;4973758;28;20043;-85
2022/03/31 08:53:40;;;;;;;36.15;14.65;;;9.80;99.90;;;;;;4973432;28;20098;-84
2022/03/31 08:56:08;;;;;;;29.98;14.02;;;9.70;99.90;;;;;;4970340;28;20471;-84
2022/03/31 08:58:34;;;;;;;25.05;13.45;;;9.70;99.90;;;;;;4954994;28;20023;-85
2022/03/31 09:01:00;;;;;;;30.90;14.60;;;9.80;99.90;;;;;;4955572;28;20026;-84
2022/03/31 09:03:36;;;;;;;34.70;14.30;;;9.80;99.90;;;;;;4956117;28;20081;-85
2022/03/31 09:06:04;;;;;;;28.35;13.90;;;9.60;99.90;;;;;;4954835;28;20041;-84
2022/03/31 09:08:30;;;;;;;32.08;15.90;;;9.60;99.90;;;;;;4955361;28;20109;-85
2022/03/31 09:11:00;;;;;;;32.45;14.75;;;9.70;99.90;;;;;;4949879;28;20026;-84
2022/03/31 09:13:28;;;;;;;31.63;15.35;;;9.90;99.90;;;;;;4969605;28;20799;-84
2022/03/31 09:16:02;;;;;;;28.15;15.00;;;10.10;99.90;;;;;;4971927;28;20107;-85
2022/03/31 09:18:30;;;;;;;23.77;12.98;;;10.10;99.90;;;;;;4970091;28;20031;-84
2022/03/31 09:20:59;;;;;;;27.23;14.80;;;10.00;99.90;;;;;;4972139;28;20494;-84
2022/03/31 09:23:27;;;;;;;27.83;14.52;;;10.00;99.90;;;;;;4971946;28;20098;-85
2022/03/31 09:26:00;;;;;;;33.88;15.32;;;10.00;99.90;;;;;;4971093;28;20490;-84
2022/03/31 09:28:26;;;;;;;32.78;14.75;;;9.80;99.90;;;;;;4967999;28;20045;-85
2022/03/31 09:30:54;;;;;;;32.10;14.82;;;9.90;99.90;;;;;;4969915;28;20027;-84
2022/03/31 09:33:38;;;;;;;28.55;13.63;;;10.00;99.90;;;;;;4950467;28;20034;-84
2022/03/31 09:36:13;;;;;;;34.80;16.08;;;10.10;99.90;;;;;;4970109;28;20073;-85
2022/03/31 09:38:43;;;;;;;32.20;16.75;;;10.10;99.90;;;;;;4954633;28;20038;-85
2022/03/31 09:41:18;;;;;;;35.85;17.15;;;10.20;99.90;;;;;;4968358;28;20058;-85
2022/03/31 09:43:44;;;;;;;39.33;17.88;;;10.30;99.90;;;;;;4954409;28;20410;-85
2022/03/31 09:46:38;;;;;;;32.53;17.27;;;10.30;99.90;;;;;;4952344;28;20035;-85
2022/03/31 09:49:26;;;;;;;31.27;16.42;;;10.30;99.90;;;;;;4964805;28;20043;-85
2022/03/31 09:52:01;;;;;;;34.63;17.10;;;10.30;99.90;;;;;;4968817;28;20047;-85
2022/03/31 09:54:30;;;;;;;39.20;18.35;;;10.30;99.90;;;;;;4957230;28;20035;-85
2022/03/31 09:56:58;;;;;;;37.85;19.50;;;10.30;99.90;;;;;;4970347;28;20023;-85
2022/03/31 09:59:32;;;;;;;37.38;19.00;;;10.40;99.90;;;;;;4953082;28;20507;-86
2022/03/31 10:01:59;;;;;;;39.28;19.67;;;10.50;99.90;;;;;;4972616;28;20042;-87
2022/03/31 10:04:26;;;;;;;40.40;19.73;;;10.70;99.90;;;;;;4956471;28;20027;-87
2022/03/31 10:06:52;;;;;;;40.42;20.85;;;11.10;99.90;;;;;;4953566;28;20027;-86
2022/03/31 10:09:19;;;;;;;42.72;20.65;;;11.20;99.90;;;;;;4955565;28;20027;-86
2022/03/31 10:11:48;;;;;;;43.03;20.42;;;11.20;99.90;;;;;;4952793;28;20589;-86
2022/03/31 10:14:43;;;;;;;36.08;18.60;;;11.40;99.90;;;;;;4955320;28;20065;-87
2022/03/31 10:17:10;;;;;;;41.00;20.40;;;11.40;99.90;;;;;;4951813;28;20026;-86
2022/03/31 10:19:41;;;;;;;39.42;21.13;;;11.60;99.90;;;;;;4949098;28;20030;-87
2022/03/31 10:25:11;;;;;;;34.47;19.88;;;11.30;99.90;;;;;;4966509;28;20471;-87
2022/03/31 10:27:40;;;;;;;43.00;21.50;;;11.00;99.90;;;;;;4952222;28;20031;-85
2022/03/31 10:30:18;;;;;;;33.80;20.15;;;11.40;99.90;;;;;;4968920;28;20491;-86
2022/03/31 10:33:04;;;;;;;38.60;19.98;;;11.20;99.90;;;;;;4967900;28;20027;-85
2022/03/31 10:35:35;;;;;;;32.13;17.52;;;12.30;99.90;;;;;;4968625;28;20121;-86
2022/03/31 10:38:33;;;;;;;34.30;18.45;;;12.30;99.90;;;;;;4971275;28;20011;-86
2022/03/31 10:41:06;;;;;;;35.38;17.63;;;12.50;99.90;;;;;;4945432;28;20031;-85
2022/03/31 10:43:33;;;;;;;35.88;17.55;;;13.20;99.90;;;;;;4955151;28;20026;-86
2022/03/31 10:46:01;;;;;;;37.35;17.20;;;13.60;99.90;;;;;;4972983;28;20581;-85
2022/03/31 10:48:31;;;;;;;33.00;16.30;;;12.80;99.90;;;;;;4949648;28;20030;-85
2022/03/31 10:51:06;;;;;;;30.10;17.90;;;12.50;99.90;;;;;;4955264;28;20046;-85
2022/03/31 10:53:35;;;;;;;31.65;17.65;;;12.30;99.90;;;;;;4977564;28;20054;-88
2022/03/31 10:56:02;;;;;;;32.63;16.70;;;12.50;99.90;;;;;;4972236;28;20015;-75
2022/03/31 10:58:30;;;;;;;31.08;16.08;;;12.70;99.90;;;;;;4975607;28;20110;-82
2022/03/31 11:00:57;;;;;;;31.75;17.35;;;12.70;99.90;;;;;;4970529;28;20038;-84
2022/03/31 11:03:24;;;;;;;33.85;17.52;;;12.40;99.90;;;;;;4971543;28;20161;-83
2022/03/31 11:05:50;;;;;;;30.33;16.00;;;12.30;99.90;;;;;;4954931;28;20505;-84
2022/03/31 11:08:17;;;;;;;34.45;15.52;;;11.90;99.90;;;;;;4972363;28;20081;-85
2022/03/31 11:10:54;;;;;;;27.42;15.23;;;11.80;99.90;;;;;;4955536;28;20015;-83
2022/03/31 11:13:30;;;;;;;25.85;14.63;;;11.90;99.90;;;;;;4973127;28;20401;-83
2022/03/31 11:15:56;;;;;;;25.55;13.70;;;12.60;99.90;;;;;;4967257;28;20023;-84
2022/03/31 11:18:22;;;;;;;22.17;11.95;;;12.60;99.90;;;;;;4963664;28;20490;-84
2022/03/31 11:20:59;;;;;;;21.02;12.63;;;12.60;99.90;;;;;;4970666;28;20027;-86
2022/03/31 11:23:27;;;;;;;22.23;12.77;;;12.90;99.90;;;;;;4949743;28;20101;-83
2022/03/31 11:25:54;;;;;;;19.55;11.95;;;12.80;99.90;;;;;;4956814;28;20487;-83
2022/03/31 11:28:20;;;;;;;26.20;13.55;;;13.60;99.90;;;;;;4973065;28;20022;-82
2022/03/31 11:30:48;;;;;;;22.20;12.30;;;13.80;99.90;;;;;;4972361;28;20023;-86
2022/03/31 11:33:15;;;;;;;22.80;11.80;;;14.00;99.90;;;;;;4954835;28;20027;-84
2022/03/31 11:35:42;;;;;;;22.23;11.15;;;13.70;99.90;;;;;;4973179;28;20027;-84
2022/03/31 11:38:17;;;;;;;19.25;10.15;;;13.70;99.90;;;;;;4973153;28;20031;-86
2022/03/31 11:40:45;;;;;;;19.13;10.68;;;14.10;99.90;;;;;;4972444;28;20387;-83
2022/03/31 11:43:14;;;;;;;20.63;10.70;;;13.80;99.90;;;;;;4972967;28;20031;-84
2022/03/31 11:45:48;;;;;;;19.08;10.70;;;14.00;99.90;;;;;;4973377;28;20022;-86
2022/03/31 11:48:40;;;;;;;18.35;10.65;;;14.10;99.90;;;;;;4971598;28;20019;-86
2022/03/31 11:51:08;;;;;;;18.55;10.75;;;14.30;99.90;;;;;;4917677;28;1328693;-85
2022/03/31 11:53:44;;;;;;;23.02;11.98;;;13.90;99.90;;;;;;4973026;28;20031;-84
2022/03/31 11:56:15;;;;;;;17.23;10.05;;;13.70;99.90;;;;;;4970724;28;20434;-84
2022/03/31 11:58:44;;;;;;;24.33;10.53;;;14.00;99.90;;;;;;4972335;28;20023;-85
2022/03/31 12:01:16;;;;;;;22.92;9.80;;;14.30;99.90;;;;;;4973224;28;20102;-82
2022/03/31 12:03:42;;;;;;;17.50;8.63;;;14.40;99.90;;;;;;4956263;28;20031;-85
2022/03/31 12:06:08;;;;;;;19.45;10.15;;;15.00;99.90;;;;;;4955020;28;20046;-85
2022/03/31 12:08:35;;;;;;;20.05;9.68;;;14.60;97.10;;;;;;4971174;28;20089;-85
2022/03/31 12:11:01;;;;;;;17.13;9.10;;;14.10;99.10;;;;;;4973091;28;20035;-85
2022/03/31 12:13:28;;;;;;;16.17;8.55;;;13.90;98.40;;;;;;4972077;28;20098;-85
2022/03/31 12:16:10;;;;;;;14.80;8.75;;;14.20;98.10;;;;;;4955045;28;20060;-84
2022/03/31 12:18:37;;;;;;;17.50;9.70;;;14.20;98.10;;;;;;4955114;28;20446;-84
2022/03/31 12:21:05;;;;;;;15.73;8.60;;;14.20;99.30;;;;;;4973592;28;20015;-85
2022/03/31 12:23:32;;;;;;;20.38;9.88;;;14.60;98.30;;;;;;4953491;28;20683;-85
2022/03/31 12:25:57;;;;;;;17.38;8.75;;;14.30;98.10;;;;;;4974021;28;20527;-85
2022/03/31 12:28:24;;;;;;;18.83;9.88;;;14.50;97.90;;;;;;4956030;28;20069;-84
2022/03/31 12:30:51;;;;;;;18.38;9.48;;;14.20;96.80;;;;;;4955072;28;20023;-85
2022/03/31 12:33:22;;;;;;;18.13;8.23;;;13.80;98.60;;;;;;4955069;28;20026;-85
2022/03/31 12:35:57;;;;;;;15.18;8.95;;;13.70;98.50;;;;;;4955533;28;20061;-84
2022/03/31 12:38:39;;;;;;;21.40;7.72;;;14.10;99.50;;;;;;4954767;28;20030;-84
2022/03/31 12:41:16;;;;;;;20.77;8.68;;;14.40;99.20;;;;;;4970664;28;20027;-84
2022/03/31 12:43:42;;;;;;;16.73;9.13;;;14.80;97.00;;;;;;4953360;28;20110;-84